sensor_id;sensor_type;location;lat;lon;timestamp;pressure;altitude;pressure_sealevel;temperature;humidity
13974;BME280;7060;43.770;4.008;2023-07-30T00:01:21;100995.34;;;24.71;72.75
13974;BME280;7060;43.770;4.008;2023-07-30T00:03:51;100987.38;;;24.70;73.16
13974;BME280;7060;43.770;4.008;2023-07-30T00:06:20;101002.72;;;24.71;73.28
13974;BME280;7060;43.770;4.008;2023-07-30T00:08:50;100985.72;;;24.69;72.92
13974;BME280;7060;43.770;4.008;2023-07-30T00:11:19;100984.50;;;24.65;72.99
13974;BME280;7060;43.770;4.008;2023-07-30T00:13:48;100986.22;;;24.59;73.11
13974;BME280;7060;43.770;4.008;2023-07-30T00:16:17;100987.50;;;24.56;72.77
13974;BME280;7060;43.770;4.008;2023-07-30T00:18:46;100994.28;;;24.54;73.19
13974;BME280;7060;43.770;4.008;2023-07-30T00:21:15;101000.19;;;24.51;73.05
13974;BME280;7060;43.770;4.008;2023-07-30T00:23:45;101000.91;;;24.46;73.25
13974;BME280;7060;43.770;4.008;2023-07-30T00:26:15;100999.81;;;24.47;73.39
13974;BME280;7060;43.770;4.008;2023-07-30T00:28:44;101006.59;;;24.45;73.71
13974;BME280;7060;43.770;4.008;2023-07-30T00:31:14;101001.13;;;24.45;73.53
13974;BME280;7060;43.770;4.008;2023-07-30T00:33:43;100995.91;;;24.43;73.60
13974;BME280;7060;43.770;4.008;2023-07-30T00:36:12;100987.13;;;24.41;73.42
13974;BME280;7060;43.770;4.008;2023-07-30T00:38:42;100994.47;;;24.41;73.51
13974;BME280;7060;43.770;4.008;2023-07-30T00:41:12;100988.19;;;24.40;73.76
13974;BME280;7060;43.770;4.008;2023-07-30T00:43:42;100995.66;;;24.45;73.50
13974;BME280;7060;43.770;4.008;2023-07-30T00:46:14;101010.75;;;24.47;73.45
13974;BME280;7060;43.770;4.008;2023-07-30T00:48:44;101004.47;;;24.47;73.12
13974;BME280;7060;43.770;4.008;2023-07-30T00:51:15;100978.38;;;24.33;72.95
13974;BME280;7060;43.770;4.008;2023-07-30T00:53:45;100997.06;;;24.36;73.03
13974;BME280;7060;43.770;4.008;2023-07-30T00:56:14;100999.66;;;24.30;73.19
13974;BME280;7060;43.770;4.008;2023-07-30T00:58:48;100999.25;;;24.27;72.97
13974;BME280;7060;43.770;4.008;2023-07-30T01:01:17;101006.63;;;24.26;73.08
13974;BME280;7060;43.770;4.008;2023-07-30T01:03:47;100999.94;;;24.22;72.86
13974;BME280;7060;43.770;4.008;2023-07-30T01:06:17;100988.50;;;24.14;73.07
13974;BME280;7060;43.770;4.008;2023-07-30T01:08:48;100982.81;;;23.97;73.17
13974;BME280;7060;43.770;4.008;2023-07-30T01:11:17;101002.69;;;24.04;72.97
13974;BME280;7060;43.770;4.008;2023-07-30T01:13:48;101002.31;;;24.01;72.89
13974;BME280;7060;43.770;4.008;2023-07-30T01:16:17;101005.09;;;23.94;72.72
13974;BME280;7060;43.770;4.008;2023-07-30T01:18:46;100998.28;;;23.85;72.60
13974;BME280;7060;43.770;4.008;2023-07-30T01:21:17;100998.56;;;23.77;72.75
13974;BME280;7060;43.770;4.008;2023-07-30T01:23:46;100999.06;;;23.67;72.72
13974;BME280;7060;43.770;4.008;2023-07-30T01:26:20;100982.63;;;23.55;72.56
13974;BME280;7060;43.770;4.008;2023-07-30T01:28:54;100978.06;;;23.49;72.86
13974;BME280;7060;43.770;4.008;2023-07-30T01:31:26;101002.94;;;23.59;73.21
13974;BME280;7060;43.770;4.008;2023-07-30T01:33:57;100993.53;;;23.55;72.89
13974;BME280;7060;43.770;4.008;2023-07-30T01:36:29;100992.09;;;23.53;72.89
13974;BME280;7060;43.770;4.008;2023-07-30T01:39:00;101000.94;;;23.48;73.03
13974;BME280;7060;43.770;4.008;2023-07-30T01:41:29;100996.78;;;23.46;73.13
13974;BME280;7060;43.770;4.008;2023-07-30T01:43:58;100998.44;;;23.47;72.88
13974;BME280;7060;43.770;4.008;2023-07-30T01:46:28;100996.38;;;23.42;72.78
13974;BME280;7060;43.770;4.008;2023-07-30T01:48:57;101000.84;;;23.37;72.59
13974;BME280;7060;43.770;4.008;2023-07-30T01:51:26;100992.94;;;23.28;72.63
13974;BME280;7060;43.770;4.008;2023-07-30T01:53:56;101001.56;;;23.25;72.66
13974;BME280;7060;43.770;4.008;2023-07-30T01:56:25;101009.94;;;23.24;72.84
13974;BME280;7060;43.770;4.008;2023-07-30T01:58:54;101011.22;;;23.21;72.49
13974;BME280;7060;43.770;4.008;2023-07-30T02:01:23;101010.38;;;23.21;72.73
13974;BME280;7060;43.770;4.008;2023-07-30T02:03:52;101000.97;;;23.17;72.55
13974;BME280;7060;43.770;4.008;2023-07-30T02:06:21;101001.63;;;23.12;72.52
13974;BME280;7060;43.770;4.008;2023-07-30T02:08:50;101001.94;;;23.04;72.48
13974;BME280;7060;43.770;4.008;2023-07-30T02:11:20;101016.84;;;23.02;72.65
13974;BME280;7060;43.770;4.008;2023-07-30T02:13:49;101007.44;;;22.98;72.94
13974;BME280;7060;43.770;4.008;2023-07-30T02:16:18;101008.91;;;22.93;72.45
13974;BME280;7060;43.770;4.008;2023-07-30T02:18:46;100989.75;;;22.75;72.58
13974;BME280;7060;43.770;4.008;2023-07-30T02:21:15;101011.91;;;22.85;72.90
13974;BME280;7060;43.770;4.008;2023-07-30T02:23:44;101001.84;;;22.86;72.82
13974;BME280;7060;43.770;4.008;2023-07-30T02:26:14;100994.72;;;22.85;72.92
13974;BME280;7060;43.770;4.008;2023-07-30T02:28:44;101001.44;;;22.82;73.07
13974;BME280;7060;43.770;4.008;2023-07-30T02:31:14;101006.25;;;22.80;72.71
13974;BME280;7060;43.770;4.008;2023-07-30T02:33:42;101004.00;;;22.77;73.08
13974;BME280;7060;43.770;4.008;2023-07-30T02:36:12;101005.06;;;22.76;72.64
13974;BME280;7060;43.770;4.008;2023-07-30T02:38:42;100996.47;;;22.73;72.63
13974;BME280;7060;43.770;4.008;2023-07-30T02:41:11;100997.13;;;22.68;72.61
13974;BME280;7060;43.770;4.008;2023-07-30T02:43:39;101001.56;;;22.62;72.66
13974;BME280;7060;43.770;4.008;2023-07-30T02:46:10;101001.78;;;22.61;72.52
13974;BME280;7060;43.770;4.008;2023-07-30T02:48:38;100998.66;;;22.57;72.82
13974;BME280;7060;43.770;4.008;2023-07-30T02:51:07;101002.44;;;22.56;72.28
13974;BME280;7060;43.770;4.008;2023-07-30T02:53:36;101001.19;;;22.52;72.62
13974;BME280;7060;43.770;4.008;2023-07-30T02:56:06;100997.84;;;22.50;72.58
13974;BME280;7060;43.770;4.008;2023-07-30T02:58:34;101004.59;;;22.41;72.32
13974;BME280;7060;43.770;4.008;2023-07-30T03:01:06;101009.63;;;22.38;72.66
13974;BME280;7060;43.770;4.008;2023-07-30T03:03:37;101014.25;;;22.30;72.71
13974;BME280;7060;43.770;4.008;2023-07-30T03:06:06;101023.47;;;22.29;72.33
13974;BME280;7060;43.770;4.008;2023-07-30T03:08:34;101014.88;;;22.33;72.39
13974;BME280;7060;43.770;4.008;2023-07-30T03:11:04;101015.09;;;22.31;72.09
13974;BME280;7060;43.770;4.008;2023-07-30T03:13:34;101016.63;;;22.20;72.11
13974;BME280;7060;43.770;4.008;2023-07-30T03:16:03;101023.75;;;22.21;71.88
13974;BME280;7060;43.770;4.008;2023-07-30T03:18:31;101024.81;;;22.14;71.51
13974;BME280;7060;43.770;4.008;2023-07-30T03:21:02;101023.78;;;22.08;72.08
13974;BME280;7060;43.770;4.008;2023-07-30T03:23:31;101030.69;;;22.04;72.18
13974;BME280;7060;43.770;4.008;2023-07-30T03:26:00;101030.69;;;22.04;72.11
13974;BME280;7060;43.770;4.008;2023-07-30T03:28:29;101022.75;;;22.03;72.28
13974;BME280;7060;43.770;4.008;2023-07-30T03:30:59;101023.78;;;22.02;72.21
13974;BME280;7060;43.770;4.008;2023-07-30T03:33:28;101021.91;;;22.02;72.56
13974;BME280;7060;43.770;4.008;2023-07-30T03:35:56;101022.75;;;22.03;72.01
13974;BME280;7060;43.770;4.008;2023-07-30T03:38:27;101027.34;;;22.02;72.32
13974;BME280;7060;43.770;4.008;2023-07-30T03:40:56;101022.94;;;22.01;71.81
13974;BME280;7060;43.770;4.008;2023-07-30T03:43:24;101023.38;;;21.98;71.88
13974;BME280;7060;43.770;4.008;2023-07-30T03:45:54;101030.31;;;21.94;71.75
13974;BME280;7060;43.770;4.008;2023-07-30T03:48:23;101037.00;;;21.98;72.12
13974;BME280;7060;43.770;4.008;2023-07-30T03:50:52;101039.31;;;21.94;71.80
13974;BME280;7060;43.770;4.008;2023-07-30T03:53:21;101043.31;;;21.92;71.88
13974;BME280;7060;43.770;4.008;2023-07-30T03:55:51;101047.91;;;21.91;71.41
13974;BME280;7060;43.770;4.008;2023-07-30T03:58:20;101057.13;;;21.84;71.60
13974;BME280;7060;43.770;4.008;2023-07-30T04:00:49;101054.84;;;21.81;72.01
13974;BME280;7060;43.770;4.008;2023-07-30T04:03:17;101043.31;;;21.79;72.08
13974;BME280;7060;43.770;4.008;2023-07-30T04:05:46;101039.09;;;21.76;72.08
13974;BME280;7060;43.770;4.008;2023-07-30T04:08:15;101042.66;;;21.77;72.23
13974;BME280;7060;43.770;4.008;2023-07-30T04:10:44;101055.88;;;21.80;71.91
13974;BME280;7060;43.770;4.008;2023-07-30T04:13:15;101053.16;;;21.80;72.22
13974;BME280;7060;43.770;4.008;2023-07-30T04:15:43;101041.19;;;21.74;72.44
13974;BME280;7060;43.770;4.008;2023-07-30T04:18:12;101056.91;;;21.72;72.69
13974;BME280;7060;43.770;4.008;2023-07-30T04:20:41;101056.50;;;21.69;73.01
13974;BME280;7060;43.770;4.008;2023-07-30T04:23:11;101049.19;;;21.62;72.70
13974;BME280;7060;43.770;4.008;2023-07-30T04:25:40;101065.09;;;21.66;72.91
13974;BME280;7060;43.770;4.008;2023-07-30T04:28:09;101059.66;;;21.66;72.67
13974;BME280;7060;43.770;4.008;2023-07-30T04:30:40;101051.66;;;21.71;72.43
13974;BME280;7060;43.770;4.008;2023-07-30T04:33:09;101054.84;;;21.68;72.82
13974;BME280;7060;43.770;4.008;2023-07-30T04:35:39;101064.69;;;21.69;72.58
13974;BME280;7060;43.770;4.008;2023-07-30T04:38:08;101066.34;;;21.70;72.24
13974;BME280;7060;43.770;4.008;2023-07-30T04:40:38;101071.34;;;21.73;72.34
13974;BME280;7060;43.770;4.008;2023-07-30T04:43:07;101074.06;;;21.73;72.62
13974;BME280;7060;43.770;4.008;2023-07-30T04:45:37;101075.09;;;21.72;72.58
13974;BME280;7060;43.770;4.008;2023-07-30T04:48:07;101078.47;;;21.74;72.49
13974;BME280;7060;43.770;4.008;2023-07-30T04:50:36;101078.06;;;21.70;72.45
13974;BME280;7060;43.770;4.008;2023-07-30T04:53:07;101071.38;;;21.66;72.84
13974;BME280;7060;43.770;4.008;2023-07-30T04:55:37;101074.50;;;21.63;73.23
13974;BME280;7060;43.770;4.008;2023-07-30T04:58:06;101079.31;;;21.61;73.53
13974;BME280;7060;43.770;4.008;2023-07-30T05:00:36;101073.88;;;21.61;73.48
13974;BME280;7060;43.770;4.008;2023-07-30T05:03:04;101076.41;;;21.62;74.02
13974;BME280;7060;43.770;4.008;2023-07-30T05:05:36;101079.13;;;21.62;74.01
13974;BME280;7060;43.770;4.008;2023-07-30T05:08:05;101070.31;;;21.60;73.91
13974;BME280;7060;43.770;4.008;2023-07-30T05:10:33;101070.13;;;21.62;74.11
13974;BME280;7060;43.770;4.008;2023-07-30T05:13:02;101072.22;;;21.67;74.12
13974;BME280;7060;43.770;4.008;2023-07-30T05:15:31;101071.78;;;21.63;74.28
13974;BME280;7060;43.770;4.008;2023-07-30T05:17:59;101072.41;;;21.65;74.42
13974;BME280;7060;43.770;4.008;2023-07-30T05:20:28;101087.69;;;21.66;74.27
13974;BME280;7060;43.770;4.008;2023-07-30T05:22:58;101092.72;;;21.69;74.66
13974;BME280;7060;43.770;4.008;2023-07-30T05:25:27;101083.72;;;21.69;74.60
13974;BME280;7060;43.770;4.008;2023-07-30T05:27:56;101078.50;;;21.67;74.81
13974;BME280;7060;43.770;4.008;2023-07-30T05:30:25;101087.28;;;21.69;74.99
13974;BME280;7060;43.770;4.008;2023-07-30T05:32:54;101097.50;;;21.74;74.62
13974;BME280;7060;43.770;4.008;2023-07-30T05:35:23;101105.91;;;21.79;74.64
13974;BME280;7060;43.770;4.008;2023-07-30T05:37:52;101096.50;;;21.81;74.09
13974;BME280;7060;43.770;4.008;2023-07-30T05:40:22;101100.91;;;21.82;74.46
13974;BME280;7060;43.770;4.008;2023-07-30T05:42:51;101095.66;;;21.81;74.18
13974;BME280;7060;43.770;4.008;2023-07-30T05:45:23;101095.66;;;21.81;73.63
13974;BME280;7060;43.770;4.008;2023-07-30T05:47:51;101107.19;;;21.83;73.83
13974;BME280;7060;43.770;4.008;2023-07-30T05:50:20;101108.44;;;21.87;74.32
13974;BME280;7060;43.770;4.008;2023-07-30T05:52:49;101106.13;;;21.90;73.95
13974;BME280;7060;43.770;4.008;2023-07-30T05:55:18;101108.66;;;21.92;73.95
13974;BME280;7060;43.770;4.008;2023-07-30T05:57:48;101107.38;;;21.94;74.51
13974;BME280;7060;43.770;4.008;2023-07-30T06:00:17;101108.00;;;21.97;74.38
13974;BME280;7060;43.770;4.008;2023-07-30T06:02:47;101111.34;;;21.99;73.83
13974;BME280;7060;43.770;4.008;2023-07-30T06:05:17;101103.59;;;22.02;73.69
13974;BME280;7060;43.770;4.008;2023-07-30T06:07:47;101109.66;;;22.04;73.71
13974;BME280;7060;43.770;4.008;2023-07-30T06:10:16;101104.84;;;22.06;74.22
13974;BME280;7060;43.770;4.008;2023-07-30T06:12:45;101104.00;;;22.12;74.01
13974;BME280;7060;43.770;4.008;2023-07-30T06:15:15;101108.59;;;22.18;73.77
13974;BME280;7060;43.770;4.008;2023-07-30T06:17:44;101116.13;;;22.23;73.82
13974;BME280;7060;43.770;4.008;2023-07-30T06:20:13;101108.59;;;22.25;73.40
13974;BME280;7060;43.770;4.008;2023-07-30T06:22:43;101116.50;;;22.26;73.34
13974;BME280;7060;43.770;4.008;2023-07-30T06:25:12;101119.22;;;22.33;73.53
13974;BME280;7060;43.770;4.008;2023-07-30T06:27:41;101117.97;;;22.36;73.26
13974;BME280;7060;43.770;4.008;2023-07-30T06:30:11;101124.66;;;22.40;72.89
13974;BME280;7060;43.770;4.008;2023-07-30T06:32:41;101126.97;;;22.43;73.14
13974;BME280;7060;43.770;4.008;2023-07-30T06:35:10;101142.47;;;22.49;72.87
13974;BME280;7060;43.770;4.008;2023-07-30T06:37:39;101151.88;;;22.53;72.24
13974;BME280;7060;43.770;4.008;2023-07-30T06:40:09;101145.59;;;22.59;72.02
13974;BME280;7060;43.770;4.008;2023-07-30T06:42:38;101146.00;;;22.62;71.80
13974;BME280;7060;43.770;4.008;2023-07-30T06:45:08;101139.69;;;22.69;71.79
13974;BME280;7060;43.770;4.008;2023-07-30T06:47:38;101140.50;;;22.76;71.38
13974;BME280;7060;43.770;4.008;2023-07-30T06:50:09;101152.81;;;22.85;70.58
13974;BME280;7060;43.770;4.008;2023-07-30T06:52:38;101151.53;;;22.94;70.40
13974;BME280;7060;43.770;4.008;2023-07-30T06:55:07;101142.69;;;23.05;70.44
13974;BME280;7060;43.770;4.008;2023-07-30T06:57:36;101153.53;;;23.12;69.96
13974;BME280;7060;43.770;4.008;2023-07-30T07:00:07;101141.75;;;23.18;69.44
13974;BME280;7060;43.770;4.008;2023-07-30T07:02:36;101155.56;;;23.23;69.43
13974;BME280;7060;43.770;4.008;2023-07-30T07:05:05;101152.63;;;23.31;69.06
13974;BME280;7060;43.770;4.008;2023-07-30T07:07:36;101161.16;;;23.41;66.55
13974;BME280;7060;43.770;4.008;2023-07-30T07:10:06;101165.91;;;23.52;66.19
13974;BME280;7060;43.770;4.008;2023-07-30T07:12:35;101168.75;;;23.64;64.82
13974;BME280;7060;43.770;4.008;2023-07-30T07:15:05;101165.28;;;23.82;64.54
13974;BME280;7060;43.770;4.008;2023-07-30T07:17:34;101161.44;;;24.14;61.06
13974;BME280;7060;43.770;4.008;2023-07-30T07:20:04;101163.19;;;24.45;58.21
13974;BME280;7060;43.770;4.008;2023-07-30T07:22:36;101174.56;;;24.67;55.61
13974;BME280;7060;43.770;4.008;2023-07-30T07:25:05;101174.56;;;24.85;55.25
13974;BME280;7060;43.770;4.008;2023-07-30T07:27:34;101167.13;;;24.92;54.50
13974;BME280;7060;43.770;4.008;2023-07-30T07:30:03;101170.13;;;25.03;53.95
13974;BME280;7060;43.770;4.008;2023-07-30T07:32:32;101174.50;;;25.22;53.36
13974;BME280;7060;43.770;4.008;2023-07-30T07:35:06;101170.22;;;25.56;51.79
13974;BME280;7060;43.770;4.008;2023-07-30T07:37:36;101168.88;;;25.77;50.91
13974;BME280;7060;43.770;4.008;2023-07-30T07:40:07;101162.50;;;26.06;50.03
13974;BME280;7060;43.770;4.008;2023-07-30T07:42:38;101155.19;;;26.47;48.22
13974;BME280;7060;43.770;4.008;2023-07-30T07:45:07;101151.47;;;26.76;47.25
13974;BME280;7060;43.770;4.008;2023-07-30T07:47:36;101140.09;;;27.24;45.97
13974;BME280;7060;43.770;4.008;2023-07-30T07:50:06;101143.91;;;27.69;44.47
13974;BME280;7060;43.770;4.008;2023-07-30T07:52:36;101142.16;;;27.96;43.76
13974;BME280;7060;43.770;4.008;2023-07-30T07:55:06;101144.84;;;28.29;42.58
13974;BME280;7060;43.770;4.008;2023-07-30T07:57:35;101142.25;;;28.78;42.21
13974;BME280;7060;43.770;4.008;2023-07-30T08:00:06;101155.97;;;29.22;41.15
13974;BME280;7060;43.770;4.008;2023-07-30T08:02:41;101145.78;;;29.49;39.43
13974;BME280;7060;43.770;4.008;2023-07-30T08:05:13;101138.94;;;29.84;38.91
13974;BME280;7060;43.770;4.008;2023-07-30T08:07:44;101139.38;;;30.08;37.25
13974;BME280;7060;43.770;4.008;2023-07-30T08:10:14;101138.66;;;30.17;37.53
13974;BME280;7060;43.770;4.008;2023-07-30T08:12:44;101138.16;;;30.30;36.67
13974;BME280;7060;43.770;4.008;2023-07-30T08:15:14;101141.00;;;30.46;36.36
13974;BME280;7060;43.770;4.008;2023-07-30T08:17:43;101137.69;;;30.44;35.66
13974;BME280;7060;43.770;4.008;2023-07-30T08:20:12;101139.34;;;30.45;35.32
13974;BME280;7060;43.770;4.008;2023-07-30T08:22:41;101148.75;;;30.54;35.58
13974;BME280;7060;43.770;4.008;2023-07-30T08:25:12;101152.88;;;30.51;34.88
13974;BME280;7060;43.770;4.008;2023-07-30T08:27:41;101155.38;;;30.53;35.64
13974;BME280;7060;43.770;4.008;2023-07-30T08:30:10;101150.94;;;30.47;35.44
13974;BME280;7060;43.770;4.008;2023-07-30T08:32:39;101159.25;;;30.57;35.26
13974;BME280;7060;43.770;4.008;2023-07-30T08:35:10;101158.47;;;30.61;35.33
13974;BME280;7060;43.770;4.008;2023-07-30T08:37:39;101147.50;;;30.67;35.63
13974;BME280;7060;43.770;4.008;2023-07-30T08:40:09;101152.19;;;30.76;35.42
13974;BME280;7060;43.770;4.008;2023-07-30T08:42:41;101144.47;;;30.73;35.34
13974;BME280;7060;43.770;4.008;2023-07-30T08:45:10;101143.13;;;30.81;35.33
13974;BME280;7060;43.770;4.008;2023-07-30T08:47:39;101141.16;;;30.76;35.01
13974;BME280;7060;43.770;4.008;2023-07-30T08:50:09;101131.75;;;30.67;34.76
13974;BME280;7060;43.770;4.008;2023-07-30T08:52:39;101143.88;;;30.66;34.93
13974;BME280;7060;43.770;4.008;2023-07-30T08:55:08;101140.53;;;30.64;34.37
13974;BME280;7060;43.770;4.008;2023-07-30T08:57:42;101136.66;;;30.60;35.18
13974;BME280;7060;43.770;4.008;2023-07-30T09:00:14;101127.22;;;30.51;34.34
13974;BME280;7060;43.770;4.008;2023-07-30T09:02:48;101072.09;;;30.09;33.41
13974;BME280;7060;43.770;4.008;2023-07-30T09:05:19;101128.84;;;30.47;33.67
13974;BME280;7060;43.770;4.008;2023-07-30T09:07:48;101125.84;;;30.53;33.40
13974;BME280;7060;43.770;4.008;2023-07-30T09:10:17;101121.19;;;30.59;33.19
13974;BME280;7060;43.770;4.008;2023-07-30T09:12:52;101070.31;;;30.29;33.26
13974;BME280;7060;43.770;4.008;2023-07-30T09:15:29;101119.63;;;30.68;32.68
13974;BME280;7060;43.770;4.008;2023-07-30T09:18:00;101096.66;;;30.62;32.34
13974;BME280;7060;43.770;4.008;2023-07-30T09:20:36;101124.09;;;30.84;32.19
13974;BME280;7060;43.770;4.008;2023-07-30T09:23:08;101112.78;;;30.86;32.25
13974;BME280;7060;43.770;4.008;2023-07-30T09:25:38;101118.03;;;31.03;32.03
13974;BME280;7060;43.770;4.008;2023-07-30T09:28:08;101114.81;;;31.21;31.44
13974;BME280;7060;43.770;4.008;2023-07-30T09:30:37;101111.22;;;31.36;30.99
13974;BME280;7060;43.770;4.008;2023-07-30T09:33:06;101108.50;;;31.51;30.96
13974;BME280;7060;43.770;4.008;2023-07-30T09:35:35;101115.38;;;31.63;30.82
13974;BME280;7060;43.770;4.008;2023-07-30T09:38:04;101109.84;;;31.84;30.80
13974;BME280;7060;43.770;4.008;2023-07-30T09:40:33;101120.34;;;32.02;31.43
13974;BME280;7060;43.770;4.008;2023-07-30T09:43:03;101124.19;;;32.16;30.36
13974;BME280;7060;43.770;4.008;2023-07-30T09:45:36;101121.44;;;32.26;29.58
13974;BME280;7060;43.770;4.008;2023-07-30T09:48:06;101118.94;;;32.35;29.15
13974;BME280;7060;43.770;4.008;2023-07-30T09:50:36;101108.91;;;32.44;28.94
13974;BME280;7060;43.770;4.008;2023-07-30T09:53:05;101110.84;;;32.49;28.48
13974;BME280;7060;43.770;4.008;2023-07-30T09:55:35;101105.00;;;32.55;28.37
13974;BME280;7060;43.770;4.008;2023-07-30T09:58:04;101106.38;;;32.58;28.20
13974;BME280;7060;43.770;4.008;2023-07-30T10:00:38;101113.00;;;32.62;28.24
13974;BME280;7060;43.770;4.008;2023-07-30T10:03:10;101110.78;;;32.64;27.77
13974;BME280;7060;43.770;4.008;2023-07-30T10:05:41;101111.56;;;32.70;27.76
13974;BME280;7060;43.770;4.008;2023-07-30T10:08:19;101095.22;;;32.78;27.39
13974;BME280;7060;43.770;4.008;2023-07-30T10:10:49;101086.31;;;32.86;27.56
13974;BME280;7060;43.770;4.008;2023-07-30T10:13:19;101098.91;;;33.08;26.57
13974;BME280;7060;43.770;4.008;2023-07-30T10:15:50;101102.22;;;33.15;26.44
13974;BME280;7060;43.770;4.008;2023-07-30T10:18:19;101099.09;;;33.21;26.25
13974;BME280;7060;43.770;4.008;2023-07-30T10:20:52;101103.44;;;33.38;25.85
13974;BME280;7060;43.770;4.008;2023-07-30T10:23:27;101087.97;;;33.32;25.58
13974;BME280;7060;43.770;4.008;2023-07-30T10:25:56;101099.88;;;33.32;25.29
13974;BME280;7060;43.770;4.008;2023-07-30T10:28:31;101096.50;;;33.40;25.72
13974;BME280;7060;43.770;4.008;2023-07-30T10:31:04;101093.09;;;33.48;25.45
13974;BME280;7060;43.770;4.008;2023-07-30T10:33:46;101091.69;;;33.51;25.42
13974;BME280;7060;43.770;4.008;2023-07-30T10:36:17;101092.47;;;33.56;25.30
13974;BME280;7060;43.770;4.008;2023-07-30T10:38:46;101088.75;;;33.71;25.01
13974;BME280;7060;43.770;4.008;2023-07-30T10:41:15;101082.59;;;33.74;25.06
13974;BME280;7060;43.770;4.008;2023-07-30T10:43:47;101077.28;;;33.83;24.56
13974;BME280;7060;43.770;4.008;2023-07-30T10:46:18;101075.91;;;33.80;24.87
13974;BME280;7060;43.770;4.008;2023-07-30T10:48:48;101062.59;;;33.77;24.54
13974;BME280;7060;43.770;4.008;2023-07-30T10:51:18;101082.69;;;33.98;24.67
13974;BME280;7060;43.770;4.008;2023-07-30T10:53:50;101075.53;;;33.92;24.35
13974;BME280;7060;43.770;4.008;2023-07-30T10:56:22;101079.38;;;33.96;24.47
13974;BME280;7060;43.770;4.008;2023-07-30T10:58:52;101077.66;;;34.00;24.66
13974;BME280;7060;43.770;4.008;2023-07-30T11:01:25;101065.94;;;34.03;24.62
13974;BME280;7060;43.770;4.008;2023-07-30T11:03:55;101055.34;;;34.10;24.79
13974;BME280;7060;43.770;4.008;2023-07-30T11:06:24;101055.81;;;34.17;24.42
13974;BME280;7060;43.770;4.008;2023-07-30T11:08:56;101067.38;;;34.24;24.50
13974;BME280;7060;43.770;4.008;2023-07-30T11:11:25;101062.94;;;34.28;24.50
13974;BME280;7060;43.770;4.008;2023-07-30T11:13:54;101048.97;;;34.34;24.03
13974;BME280;7060;43.770;4.008;2023-07-30T11:16:25;101051.16;;;34.37;24.26
13974;BME280;7060;43.770;4.008;2023-07-30T11:18:54;101046.06;;;34.44;24.36
13974;BME280;7060;43.770;4.008;2023-07-30T11:21:23;101045.94;;;34.54;24.21
13974;BME280;7060;43.770;4.008;2023-07-30T11:23:52;101045.72;;;34.69;23.85
13974;BME280;7060;43.770;4.008;2023-07-30T11:26:21;101030.00;;;34.83;23.98
13974;BME280;7060;43.770;4.008;2023-07-30T11:28:50;101029.81;;;34.93;23.35
13974;BME280;7060;43.770;4.008;2023-07-30T11:31:19;101044.00;;;34.92;23.59
13974;BME280;7060;43.770;4.008;2023-07-30T11:33:51;101034.69;;;35.02;23.27
13974;BME280;7060;43.770;4.008;2023-07-30T11:36:21;101031.09;;;35.01;23.16
13974;BME280;7060;43.770;4.008;2023-07-30T11:38:51;101035.69;;;35.11;22.63
13974;BME280;7060;43.770;4.008;2023-07-30T11:41:24;101031.13;;;35.15;22.96
13974;BME280;7060;43.770;4.008;2023-07-30T11:43:54;101019.88;;;35.25;22.49
13974;BME280;7060;43.770;4.008;2023-07-30T11:46:23;101017.84;;;35.31;22.33
13974;BME280;7060;43.770;4.008;2023-07-30T11:49:10;101006.00;;;35.25;21.82
13974;BME280;7060;43.770;4.008;2023-07-30T11:51:40;101019.50;;;35.13;23.01
13974;BME280;7060;43.770;4.008;2023-07-30T11:54:18;101002.63;;;35.09;23.53
13974;BME280;7060;43.770;4.008;2023-07-30T11:56:54;101000.69;;;35.10;23.70
13974;BME280;7060;43.770;4.008;2023-07-30T11:59:27;101005.69;;;35.26;23.60
13974;BME280;7060;43.770;4.008;2023-07-30T12:01:57;101004.38;;;35.19;23.94
13974;BME280;7060;43.770;4.008;2023-07-30T12:04:30;101005.13;;;35.24;22.90
13974;BME280;7060;43.770;4.008;2023-07-30T12:07:00;101003.22;;;35.25;22.17
13974;BME280;7060;43.770;4.008;2023-07-30T12:09:35;100995.00;;;35.34;21.75
13974;BME280;7060;43.770;4.008;2023-07-30T12:12:06;100995.00;;;35.34;21.57
13974;BME280;7060;43.770;4.008;2023-07-30T12:14:53;100984.81;;;35.29;21.86
13974;BME280;7060;43.770;4.008;2023-07-30T12:17:25;100981.03;;;35.20;22.50
13974;BME280;7060;43.770;4.008;2023-07-30T12:19:55;100986.53;;;35.25;21.73
13974;BME280;7060;43.770;4.008;2023-07-30T12:22:34;100989.31;;;35.25;21.41
13974;BME280;7060;43.770;4.008;2023-07-30T12:25:05;100994.72;;;35.35;21.80
13974;BME280;7060;43.770;4.008;2023-07-30T12:27:35;100985.13;;;35.41;21.28
13974;BME280;7060;43.770;4.008;2023-07-30T12:30:05;100985.13;;;35.41;21.34
13974;BME280;7060;43.770;4.008;2023-07-30T12:32:34;100975.03;;;35.45;20.82
13974;BME280;7060;43.770;4.008;2023-07-30T12:35:05;100981.84;;;35.53;21.03
13974;BME280;7060;43.770;4.008;2023-07-30T12:37:34;100974.97;;;35.64;21.02
13974;BME280;7060;43.770;4.008;2023-07-30T12:40:05;100977.88;;;35.73;20.09
13974;BME280;7060;43.770;4.008;2023-07-30T12:42:34;100980.88;;;35.76;20.30
13974;BME280;7060;43.770;4.008;2023-07-30T12:45:03;100974.91;;;35.83;20.26
13974;BME280;7060;43.770;4.008;2023-07-30T12:47:32;100976.56;;;35.84;20.27
13974;BME280;7060;43.770;4.008;2023-07-30T12:50:06;100961.41;;;35.90;20.42
13974;BME280;7060;43.770;4.008;2023-07-30T12:52:35;100966.25;;;35.84;20.07
13974;BME280;7060;43.770;4.008;2023-07-30T12:55:05;100953.78;;;35.82;19.80
13974;BME280;7060;43.770;4.008;2023-07-30T12:57:34;100963.03;;;35.64;20.08
13974;BME280;7060;43.770;4.008;2023-07-30T13:00:05;100958.41;;;35.73;19.78
13974;BME280;7060;43.770;4.008;2023-07-30T13:02:35;100949.00;;;35.69;20.07
13974;BME280;7060;43.770;4.008;2023-07-30T13:05:06;100941.25;;;35.66;19.29
13974;BME280;7060;43.770;4.008;2023-07-30T13:07:35;100954.03;;;35.67;19.31
13974;BME280;7060;43.770;4.008;2023-07-30T13:10:05;100932.63;;;35.53;19.75
13974;BME280;7060;43.770;4.008;2023-07-30T13:12:35;100945.00;;;35.61;19.61
13974;BME280;7060;43.770;4.008;2023-07-30T13:15:05;100946.03;;;35.65;19.51